Time;durP1;ratioP1;P1;durP2;ratioP2;P2;SDS_P1;SDS_P2;PMS_P1;PMS_P2;Temp;Humidity;BMP_temperature;BMP_pressure;BME280_temperature;BME280_humidity;BME280_pressure;Samples;Min_cycle;Max_cycle;Signal;HPM_P1;HPM_P2
2023/05/04 00:00:38;;;;;;;;;10.00;9.00;;;;;19.59;56.90;101253.25;5100707;27;55369;-76
2023/05/04 00:03:03;;;;;;;;;9.00;9.00;;;;;19.66;57.28;101264.78;5100871;27;45283;-76
2023/05/04 00:05:29;;;;;;;;;9.00;9.00;;;;;19.58;57.60;101250.75;5082436;27;45438;-77
2023/05/04 00:07:54;;;;;;;;;9.00;9.00;;;;;19.53;57.42;101241.47;5100737;27;46170;-76
2023/05/04 00:10:20;;;;;;;;;9.33;8.67;;;;;19.57;57.97;101247.22;5100794;27;45400;-76
2023/05/04 00:12:45;;;;;;;;;7.00;7.00;;;;;19.57;58.63;101243.72;5100697;27;45337;-76
2023/05/04 00:15:10;;;;;;;;;9.67;8.00;;;;;19.55;58.72;101247.44;5082481;27;45443;-76
2023/05/04 00:17:36;;;;;;;;;6.67;6.33;;;;;19.46;58.93;101234.50;5082174;27;46938;-76
2023/05/04 00:20:02;;;;;;;;;8.00;8.00;;;;;19.43;58.79;101238.47;5081917;27;54640;-76
2023/05/04 00:22:28;;;;;;;;;7.67;7.33;;;;;19.44;59.59;101232.03;5100564;27;45246;-76
2023/05/04 00:24:53;;;;;;;;;8.00;8.00;;;;;19.45;60.00;101224.78;5100398;27;49563;-75
2023/05/04 00:27:18;;;;;;;;;11.33;10.33;;;;;19.35;59.98;101211.78;5100349;27;53859;-75
2023/05/04 00:29:43;;;;;;;;;12.00;11.00;;;;;19.41;59.51;101217.13;5098661;27;47060;-76
2023/05/04 00:32:09;;;;;;;;;10.00;10.00;;;;;19.38;59.44;101212.19;5100427;27;45296;-76
2023/05/04 00:34:35;;;;;;;;;8.00;8.00;;;;;19.44;59.52;101223.94;5082173;27;45402;-75
2023/05/04 00:37:00;;;;;;;;;12.00;12.00;;;;;19.51;59.41;101234.63;5100282;27;45429;-77
2023/05/04 00:39:25;;;;;;;;;10.00;10.00;;;;;19.49;59.31;101234.06;5100126;27;47061;-76
2023/05/04 00:41:51;;;;;;;;;10.00;8.67;;;;;19.53;60.34;101233.38;5082033;27;45359;-75
2023/05/04 00:44:16;;;;;;;;;8.00;8.00;;;;;19.33;59.82;101203.91;5100404;27;45802;-76
2023/05/04 00:46:41;;;;;;;;;8.33;8.00;;;;;19.50;60.04;101223.06;5081909;27;46219;-76
2023/05/04 00:49:07;;;;;;;;;8.00;8.00;;;;;19.41;60.28;101211.75;5100328;27;45403;-76
2023/05/04 00:51:33;;;;;;;;;11.33;11.00;;;;;19.33;60.28;101213.91;5100260;27;45334;-76
2023/05/04 00:53:59;;;;;;;;;6.00;6.00;;;;;19.27;60.80;101202.94;5082064;27;45360;-75
2023/05/04 00:56:25;;;;;;;;;12.33;12.33;;;;;19.36;61.01;101211.56;5100198;27;45465;-75
2023/05/04 00:58:56;;;;;;;;;12.33;12.33;;;;;19.33;61.63;101203.91;5099822;27;45315;-76
2023/05/04 01:01:21;;;;;;;;;11.33;10.00;;;;;19.22;61.30;101183.94;5100231;27;45270;-76
2023/05/04 01:03:49;;;;;;;;;13.00;13.00;;;;;19.22;62.01;101172.31;5100109;27;45367;-76
2023/05/04 01:06:36;;;;;;;;;13.00;13.00;;;;;19.26;61.68;101190.53;5081503;27;47275;-76
2023/05/04 01:09:09;;;;;;;;;12.33;11.67;;;;;19.20;61.49;101182.50;5081451;27;47666;-76
2023/05/04 01:12:07;;;;;;;;;10.67;10.00;;;;;19.28;62.07;101198.38;5100007;27;45336;-76
2023/05/04 01:14:36;;;;;;;;;12.67;11.67;;;;;19.22;62.36;101183.09;5101559;27;45460;-76
2023/05/04 01:17:06;;;;;;;;;10.00;9.00;;;;;19.28;61.96;101198.38;5103413;27;45573;-76
2023/05/04 01:19:32;;;;;;;;;12.67;12.67;;;;;19.28;62.03;101199.19;5103423;27;45533;-76
2023/05/04 01:21:57;;;;;;;;;13.00;13.00;;;;;19.28;62.24;101187.63;5103397;27;45273;-76
2023/05/04 01:24:25;;;;;;;;;11.67;11.00;;;;;19.32;62.22;101196.91;5103642;27;45280;-75
2023/05/04 01:27:07;;;;;;;;;9.67;9.67;;;;;19.20;62.20;101169.84;5103443;27;45478;-76
2023/05/04 01:29:48;;;;;;;;;12.00;10.33;;;;;19.26;62.51;101182.44;5084437;27;47762;-76
2023/05/04 01:32:14;;;;;;;;;14.67;13.67;;;;;19.23;62.31;101184.75;5084587;27;45383;-77
2023/05/04 01:34:40;;;;;;;;;12.33;12.33;;;;;19.21;62.39;101184.16;5084904;27;45388;-76
2023/05/04 01:37:05;;;;;;;;;13.00;12.00;;;;;19.16;62.70;101179.44;5084389;27;45578;-76
2023/05/04 01:39:31;;;;;;;;;12.00;12.00;;;;;19.16;63.22;101182.13;5103225;27;46370;-76
2023/05/04 01:41:56;;;;;;;;;12.00;12.00;;;;;19.11;63.10;101177.41;5103307;27;45239;-76
2023/05/04 01:44:21;;;;;;;;;14.00;14.00;;;;;19.08;62.83;101172.44;5102908;27;46175;-75
2023/05/04 01:46:47;;;;;;;;;11.67;11.67;;;;;19.05;62.63;101173.69;5103245;27;45220;-76
2023/05/04 01:49:12;;;;;;;;;14.00;13.00;;;;;19.00;63.09;101161.91;5103059;27;46694;-76
2023/05/04 01:51:37;;;;;;;;;12.00;11.67;;;;;19.00;63.94;101160.06;5084562;27;45280;-75
2023/05/04 01:54:03;;;;;;;;;12.00;11.00;;;;;18.95;63.57;101164.47;5103037;27;45223;-76
2023/05/04 01:56:28;;;;;;;;;12.00;12.00;;;;;18.96;64.62;101169.63;5084285;27;52387;-76
2023/05/04 01:58:53;;;;;;;;;10.67;10.67;;;;;18.76;65.05;101146.38;5102705;27;45160;-76
2023/05/04 02:01:19;;;;;;;;;9.33;9.33;;;;;18.87;64.87;101165.53;5103043;27;45231;-76
2023/05/04 02:03:44;;;;;;;;;14.67;14.67;;;;;18.90;64.55;101160.56;5103005;27;45209;-76
2023/05/04 02:06:09;;;;;;;;;11.67;11.33;;;;;18.90;64.81;101165.09;5102846;27;45415;-76
2023/05/04 02:08:35;;;;;;;;;15.00;15.00;;;;;18.89;65.22;101169.66;5102715;27;45605;-76
2023/05/04 02:11:00;;;;;;;;;13.00;13.00;;;;;18.87;65.42;101166.38;5102496;27;57402;-76
2023/05/04 02:13:25;;;;;;;;;14.00;13.67;;;;;18.82;64.82;101155.44;5084337;27;45320;-75
2023/05/04 02:15:51;;;;;;;;;10.67;10.67;;;;;18.91;65.19;101161.38;5084178;27;45982;-76
2023/05/04 02:18:16;;;;;;;;;12.33;12.33;;;;;18.87;65.23;101149.38;5084147;27;48253;-75
2023/05/04 02:20:41;;;;;;;;;16.67;16.67;;;;;18.80;65.47;101139.50;5102489;27;45366;-76
2023/05/04 02:23:07;;;;;;;;;13.00;12.00;;;;;18.86;64.92;101162.03;5102781;27;45366;-76
2023/05/04 02:25:32;;;;;;;;;12.33;11.67;;;;;18.77;65.76;101153.41;5100881;27;55724;-76
2023/05/04 02:27:57;;;;;;;;;13.00;12.67;;;;;18.66;65.26;101133.41;5083632;27;52590;-76
2023/05/04 02:30:22;;;;;;;;;11.33;11.33;;;;;18.70;65.79;101147.25;5102136;27;46948;-76
2023/05/04 02:32:48;;;;;;;;;12.33;12.33;;;;;18.63;65.88;101133.00;5084115;27;45328;-76
2023/05/04 02:35:13;;;;;;;;;14.33;14.33;;;;;18.65;65.33;101147.09;5102298;27;45314;-76
2023/05/04 02:37:39;;;;;;;;;14.00;14.00;;;;;18.60;66.51;101145.03;5102163;27;46032;-76
2023/05/04 02:40:05;;;;;;;;;12.00;11.00;;;;;18.54;67.02;101141.38;5102365;27;45365;-77
2023/05/04 02:42:30;;;;;;;;;12.00;11.00;;;;;18.54;67.58;101135.16;5083897;27;45289;-76
2023/05/04 02:44:56;;;;;;;;;19.67;16.00;;;;;18.45;67.31;101133.75;5102166;27;45516;-75
2023/05/04 02:47:21;;;;;;;;;13.00;13.00;;;;;18.48;67.31;101136.84;5101993;27;49452;-77
2023/05/04 02:49:46;;;;;;;;;14.67;13.00;;;;;18.46;67.60;101130.84;5102252;27;45219;-76
2023/05/04 02:52:12;;;;;;;;;13.33;12.67;;;;;18.46;68.41;101133.53;5101993;27;46875;-76
2023/05/04 02:54:37;;;;;;;;;16.67;14.67;;;;;18.39;68.55;101122.00;5102067;27;45493;-76
2023/05/04 02:57:03;;;;;;;;;14.00;14.00;;;;;18.45;67.53;101133.75;5083608;27;48215;-76
2023/05/04 02:59:28;;;;;;;;;12.00;11.00;;;;;18.38;68.89;101121.16;5101801;27;45242;-76
2023/05/04 03:01:54;;;;;;;;;15.33;15.33;;;;;18.34;69.14;101114.59;5083183;27;51945;-76
2023/05/04 03:04:19;;;;;;;;;17.67;15.33;;;;;18.31;68.86;101096.19;5083520;27;46047;-77
2023/05/04 03:06:46;;;;;;;;;14.00;13.67;;;;;18.41;68.67;101107.28;5101807;27;45510;-75
2023/05/04 03:09:11;;;;;;;;;14.67;14.67;;;;;18.40;68.41;101108.34;5101903;27;45388;-76
2023/05/04 03:11:36;;;;;;;;;15.67;15.67;;;;;18.40;68.59;101112.88;5083509;27;45634;-76
2023/05/04 03:14:02;;;;;;;;;15.33;13.67;;;;;18.41;68.93;101109.16;5101219;27;54610;-76
2023/05/04 03:16:27;;;;;;;;;15.67;15.67;;;;;18.53;68.95;101099.34;5083428;27;47018;-76
2023/05/04 03:18:52;;;;;;;;;14.00;14.00;;;;;18.53;68.83;101090.44;5101562;27;45388;-76
2023/05/04 03:21:18;;;;;;;;;16.00;16.00;;;;;18.54;68.70;101098.31;5101400;27;49070;-75
2023/05/04 03:23:43;;;;;;;;;13.67;13.67;;;;;18.61;68.44;101098.25;5083103;27;46039;-76
2023/05/04 03:26:08;;;;;;;;;15.67;14.33;;;;;18.61;68.51;101092.03;5101444;27;49903;-75
2023/05/04 03:28:33;;;;;;;;;16.67;16.67;;;;;18.61;68.28;101092.84;5100869;27;57397;-76
2023/05/04 03:30:59;;;;;;;;;15.33;14.00;;;;;18.52;68.39;101084.22;5082068;27;45353;-76
2023/05/04 03:33:24;;;;;;;;;15.00;14.00;;;;;18.64;68.33;101094.28;5100934;27;45392;-76
2023/05/04 03:35:49;;;;;;;;;15.00;13.67;;;;;18.63;68.50;101088.09;5081235;27;60392;-76
2023/05/04 03:38:15;;;;;;;;;15.67;15.67;;;;;18.64;68.98;101091.59;5071689;28;57216;-77
2023/05/04 03:40:40;;;;;;;;;14.00;14.00;;;;;18.66;68.97;101100.28;5081094;28;45234;-76
2023/05/04 03:43:06;;;;;;;;;20.33;19.67;;;;;18.62;68.99;101091.00;5080514;28;45252;-76
2023/05/04 03:45:31;;;;;;;;;14.67;14.67;;;;;18.60;68.82;101101.97;5062614;28;47223;-76
2023/05/04 03:47:56;;;;;;;;;14.00;14.00;;;;;18.56;69.05;101090.00;5080634;28;49655;-76
2023/05/04 03:50:22;;;;;;;;;15.33;14.67;;;;;18.64;68.54;101091.59;5062630;28;45276;-76
2023/05/04 03:52:48;;;;;;;;;14.67;14.67;;;;;18.68;68.60;101100.88;5081016;28;45378;-76
2023/05/04 03:55:14;;;;;;;;;13.67;13.67;;;;;18.61;69.30;101092.84;5079442;28;47708;-77
2023/05/04 03:57:40;;;;;;;;;16.00;15.00;;;;;18.64;69.35;101091.59;5062105;28;45376;-76
2023/05/04 04:00:06;;;;;;;;;14.00;12.67;;;;;18.58;69.79;101087.09;5080931;28;45363;-76
2023/05/04 04:02:31;;;;;;;;;17.00;16.67;;;;;18.57;68.53;101086.28;5080684;28;45339;-75
2023/05/04 04:04:56;;;;;;;;;15.00;15.00;;;;;18.55;69.39;101082.97;5062556;28;47156;-76
2023/05/04 04:07:22;;;;;;;;;17.00;15.00;;;;;18.61;69.19;101089.31;5062210;28;45632;-76
2023/05/04 04:09:47;;;;;;;;;18.67;18.33;;;;;18.55;69.01;101082.97;5062384;28;45496;-75
2023/05/04 04:12:14;;;;;;;;;17.00;17.00;;;;;18.49;68.31;101068.53;5080609;28;45358;-75
2023/05/04 04:14:40;;;;;;;;;18.33;15.33;;;;;18.54;69.76;101092.09;5080381;28;46006;-76
2023/05/04 04:17:05;;;;;;;;;13.67;13.00;;;;;18.53;69.66;101087.75;5062201;28;46033;-76
2023/05/04 04:19:30;;;;;;;;;17.00;16.33;;;;;18.54;69.78;101086.72;5062000;28;48966;-76
2023/05/04 04:21:58;;;;;;;;;15.00;14.33;;;;;18.57;69.46;101090.81;5080151;28;53226;-76
2023/05/04 04:24:24;;;;;;;;;13.33;13.33;;;;;18.58;69.07;101087.91;5078953;28;47290;-76
2023/05/04 04:26:50;;;;;;;;;16.33;15.33;;;;;18.63;69.29;101079.19;5062246;28;45241;-76
2023/05/04 04:29:16;;;;;;;;;16.33;15.67;;;;;18.60;69.45;101083.16;5088466;27;45485;-77
2023/05/04 04:31:41;;;;;;;;;15.00;15.00;;;;;18.64;69.14;101075.44;5082255;27;47169;-76
2023/05/04 04:34:06;;;;;;;;;16.67;16.67;;;;;18.62;68.83;101070.28;5100558;27;45315;-75
2023/05/04 04:36:32;;;;;;;;;16.00;15.00;;;;;18.57;69.08;101063.91;5082124;27;45314;-75
2023/05/04 04:38:57;;;;;;;;;19.00;17.00;;;;;18.54;69.57;101066.00;5117208;27;45493;-76
2023/05/04 04:41:23;;;;;;;;;15.00;14.00;;;;;18.49;69.59;101059.63;5121121;27;45543;-75
2023/05/04 04:43:49;;;;;;;;;16.67;15.00;;;;;18.45;69.64;101053.88;5119448;27;47412;-75
2023/05/04 04:46:14;;;;;;;;;17.33;16.00;;;;;18.52;69.91;101060.00;5102455;27;45335;-76
2023/05/04 04:48:40;;;;;;;;;17.67;15.33;;;;;18.49;69.76;101051.53;5118789;27;45324;-76
2023/05/04 04:51:09;;;;;;;;;17.00;16.00;;;;;18.51;70.43;101050.31;5120875;27;45316;-75
2023/05/04 04:53:34;;;;;;;;;17.33;16.67;;;;;18.49;69.95;101043.47;5120940;27;45454;-75
2023/05/04 04:56:00;;;;;;;;;17.67;15.33;;;;;18.57;70.13;101063.91;5102260;27;45323;-76
2023/05/04 04:58:25;;;;;;;;;15.67;15.67;;;;;18.44;69.97;101046.84;5119418;27;45519;-77
2023/05/04 05:00:51;;;;;;;;;16.00;15.00;;;;;18.57;69.99;101064.75;5094766;27;50181;-75
2023/05/04 05:03:19;;;;;;;;;17.00;15.33;;;;;18.56;70.75;101055.03;5099480;27;45309;-76
2023/05/04 05:05:45;;;;;;;;;17.33;16.00;;;;;18.46;70.41;101039.34;5078347;27;45276;-76
2023/05/04 05:08:10;;;;;;;;;18.33;16.00;;;;;18.58;70.13;101063.69;5099451;27;45805;-76
2023/05/04 05:10:35;;;;;;;;;16.67;16.33;;;;;18.52;70.64;101048.41;5099909;27;45241;-76
2023/05/04 05:13:01;;;;;;;;;16.00;15.00;;;;;18.48;71.17;101039.13;5099753;27;46163;-75
2023/05/04 05:15:26;;;;;;;;;18.00;16.00;;;;;18.55;70.54;101045.28;5100300;27;45158;-76
2023/05/04 05:17:51;;;;;;;;;16.67;15.00;;;;;18.58;70.46;101042.16;5098218;27;45316;-77
2023/05/04 05:20:17;;;;;;;;;15.33;15.33;;;;;18.53;69.86;101042.81;5081264;27;45974;-78
2023/05/04 05:22:42;;;;;;;;;16.67;16.67;;;;;18.53;69.91;101034.75;5099607;27;45312;-77
2023/05/04 05:25:07;;;;;;;;;17.33;17.33;;;;;18.57;70.20;101034.31;5098342;27;45322;-78
2023/05/04 05:27:33;;;;;;;;;14.00;14.00;;;;;18.63;70.22;101036.13;5077991;27;46781;-76
2023/05/04 05:30:00;;;;;;;;;16.67;15.67;;;;;18.59;70.16;101013.38;5098596;27;45371;-76
2023/05/04 05:32:26;;;;;;;;;16.00;14.00;;;;;18.63;70.51;101025.34;5096580;27;45395;-76
2023/05/04 05:34:51;;;;;;;;;21.33;16.67;;;;;18.64;70.42;101018.91;5099889;27;45394;-76
2023/05/04 05:37:16;;;;;;;;;14.67;14.00;;;;;18.65;70.46;101017.88;5081376;27;45358;-76
2023/05/04 05:39:42;;;;;;;;;14.00;14.00;;;;;18.63;70.83;101019.97;5099629;27;45318;-76
2023/05/04 05:42:07;;;;;;;;;18.00;18.00;;;;;18.55;70.92;101015.69;5099341;27;54828;-77
2023/05/04 05:44:36;;;;;;;;;15.67;15.67;;;;;18.51;71.52;101001.03;5081049;27;45868;-76
2023/05/04 05:47:02;;;;;;;;;15.00;15.00;;;;;18.54;70.71;101011.34;5081596;27;45233;-77
2023/05/04 05:49:27;;;;;;;;;15.67;14.67;;;;;18.57;71.15;101012.78;5099588;27;45281;-77
2023/05/04 05:51:53;;;;;;;;;16.33;16.33;;;;;18.63;71.03;101020.78;5099145;27;45195;-75
2023/05/04 05:54:20;;;;;;;;;16.33;14.33;;;;;18.65;70.97;101016.00;5099704;27;45291;-77
2023/05/04 05:56:45;;;;;;;;;15.00;14.33;;;;;18.71;70.76;101025.06;5081389;27;45417;-75
2023/05/04 05:59:11;;;;;;;;;18.00;16.33;;;;;18.79;70.48;101019.41;5080321;27;47297;-76
2023/05/04 06:01:36;;;;;;;;;15.67;15.67;;;;;18.88;70.61;101044.16;5081042;27;52298;-75
2023/05/04 06:04:01;;;;;;;;;15.33;14.33;;;;;18.64;70.56;100994.69;5102753;27;51472;-77
2023/05/04 06:06:27;;;;;;;;;15.67;15.00;;;;;18.98;70.29;101046.34;5084632;27;45410;-77
2023/05/04 06:08:52;;;;;;;;;16.00;15.00;;;;;18.95;70.87;101030.63;5102832;27;45406;-76
2023/05/04 06:11:17;;;;;;;;;17.67;17.67;;;;;18.99;71.14;101034.53;5102894;27;45325;-76
2023/05/04 06:13:43;;;;;;;;;19.33;16.67;;;;;18.97;70.82;101025.84;5102599;27;45300;-77
2023/05/04 06:16:08;;;;;;;;;17.00;16.67;;;;;19.00;70.08;101020.00;5102882;27;45364;-76
2023/05/04 06:18:33;;;;;;;;;15.33;15.00;;;;;19.12;70.56;101038.97;5084342;27;46500;-77
2023/05/04 06:21:00;;;;;;;;;17.33;16.00;;;;;19.25;70.13;101047.94;5102493;27;49321;-76
2023/05/04 06:23:28;;;;;;;;;19.67;17.67;;;;;19.20;70.90;101037.84;5102962;27;45267;-77
2023/05/04 06:25:53;;;;;;;;;19.33;19.00;;;;;19.23;70.75;101026.63;5102807;27;45212;-76
2023/05/04 06:28:18;;;;;;;;;13.67;13.67;;;;;19.30;70.93;101031.91;5084178;27;46874;-77
2023/05/04 06:30:44;;;;;;;;;16.00;15.00;;;;;19.44;70.98;101040.66;5123236;27;45405;-76
2023/05/04 06:33:09;;;;;;;;;17.33;17.33;;;;;19.46;70.28;101013.50;5123179;27;45279;-76
2023/05/04 06:35:35;;;;;;;;;17.00;16.67;;;;;19.53;70.60;101012.38;5121982;27;45275;-76
2023/05/04 06:38:00;;;;;;;;;13.00;13.00;;;;;19.61;71.18;101022.00;5122881;27;45405;-77
2023/05/04 06:40:25;;;;;;;;;19.00;16.67;;;;;19.67;70.87;101022.97;5104606;27;47953;-77
2023/05/04 06:42:51;;;;;;;;;17.67;17.67;;;;;19.79;71.19;101026.50;5121548;27;45570;-77
2023/05/04 06:45:16;;;;;;;;;17.33;17.33;;;;;19.81;69.67;101019.03;5104734;27;45346;-76
2023/05/04 06:47:42;;;;;;;;;22.00;18.00;;;;;19.99;69.69;101030.00;5102571;27;47339;-78
2023/05/04 06:50:08;;;;;;;;;16.00;15.67;;;;;19.97;69.38;101014.03;5099608;27;45320;-77
2023/05/04 06:52:35;;;;;;;;;15.33;14.00;;;;;20.01;70.32;101015.25;5082459;27;46287;-77
2023/05/04 06:55:00;;;;;;;;;16.33;15.00;;;;;20.09;70.62;101014.09;5100920;27;45297;-77
2023/05/04 06:57:27;;;;;;;;;14.67;14.33;;;;;20.17;70.23;101011.03;5101895;27;45238;-78
2023/05/04 06:59:53;;;;;;;;;16.67;15.67;;;;;20.24;70.40;101008.25;5102139;27;45564;-77
2023/05/04 07:02:18;;;;;;;;;18.00;17.00;;;;;20.34;70.53;101013.06;5102154;27;45293;-77
2023/05/04 07:04:44;;;;;;;;;16.67;16.00;;;;;20.40;70.10;101016.69;5102295;27;45360;-75
2023/05/04 07:07:09;;;;;;;;;14.00;13.67;;;;;20.42;70.64;101006.50;5101667;27;45414;-77
2023/05/04 07:09:35;;;;;;;;;14.00;13.00;;;;;20.74;70.78;101027.72;5101890;27;45943;-76
2023/05/04 07:12:00;;;;;;;;;15.00;13.33;;;;;20.78;70.26;101020.81;5101259;27;45979;-76
2023/05/04 07:14:25;;;;;;;;;16.33;14.67;;;;;21.00;70.34;101020.22;5101958;27;45450;-76
2023/05/04 07:16:50;;;;;;;;;12.67;12.67;;;;;21.26;69.74;101028.03;5101850;27;45622;-76
2023/05/04 07:19:16;;;;;;;;;17.67;16.33;;;;;21.35;69.70;101012.25;5101720;27;46152;-76
2023/05/04 07:21:41;;;;;;;;;12.00;12.00;;;;;21.52;68.49;101012.31;5101675;27;45382;-76
2023/05/04 07:24:07;;;;;;;;;15.00;15.00;;;;;21.61;67.68;101012.75;5083524;27;45261;-76
2023/05/04 07:26:32;;;;;;;;;15.00;15.00;;;;;21.64;68.16;100993.34;5101746;27;45414;-76
2023/05/04 07:28:58;;;;;;;;;12.33;12.33;;;;;21.71;68.41;100988.59;5082971;27;47354;-76
2023/05/04 07:31:23;;;;;;;;;17.00;15.33;;;;;21.85;68.16;101001.84;5101318;27;55771;-76
2023/05/04 07:33:48;;;;;;;;;15.33;15.33;;;;;21.85;67.82;100988.31;5101450;27;46401;-78
2023/05/04 07:36:14;;;;;;;;;12.67;12.67;;;;;21.90;68.04;100997.34;5101488;27;45499;-77
2023/05/04 07:38:39;;;;;;;;;17.33;16.00;;;;;21.95;67.43;100988.50;5087503;27;45317;-76
2023/05/04 07:41:06;;;;;;;;;15.00;14.00;;;;;22.10;66.86;101006.03;5081180;28;45268;-76
2023/05/04 07:43:31;;;;;;;;;17.33;16.67;;;;;22.19;67.79;100999.16;5081206;28;45233;-75
2023/05/04 07:45:57;;;;;;;;;13.67;13.67;;;;;22.29;66.61;101009.31;5076928;28;45370;-77
2023/05/04 07:48:22;;;;;;;;;16.67;16.67;;;;;22.32;66.47;101020.47;5061771;28;48521;-77
2023/05/04 07:50:48;;;;;;;;;16.00;14.67;;;;;22.44;66.88;101024.97;5080088;28;45216;-77
2023/05/04 07:53:13;;;;;;;;;17.00;15.00;;;;;22.51;66.10;101022.91;5080113;28;45291;-77
2023/05/04 07:55:38;;;;;;;;;13.33;13.00;;;;;22.56;67.13;101014.88;5080563;28;45479;-77
2023/05/04 07:58:04;;;;;;;;;14.67;14.67;;;;;22.68;66.96;101024.81;5080489;28;46136;-78
2023/05/04 08:00:30;;;;;;;;;15.67;15.00;;;;;22.78;66.87;101010.59;5060820;28;45401;-78
2023/05/04 08:02:55;;;;;;;;;15.00;13.33;;;;;23.00;65.89;101017.91;5062734;28;45321;-78
2023/05/04 08:05:21;;;;;;;;;13.67;13.33;;;;;23.07;65.13;100997.69;5062318;28;47413;-77
2023/05/04 08:07:46;;;;;;;;;12.00;12.00;;;;;23.27;64.23;101001.72;5079809;28;46012;-76
2023/05/04 08:10:11;;;;;;;;;14.67;13.67;;;;;23.35;64.11;100999.63;5080383;28;48487;-77
2023/05/04 08:12:39;;;;;;;;;13.67;13.67;;;;;23.53;64.02;101006.63;5080579;28;45491;-76
2023/05/04 08:15:06;;;;;;;;;17.33;17.00;;;;;23.58;64.02;100991.22;5062166;28;46281;-77
2023/05/04 08:17:33;;;;;;;;;15.67;14.00;;;;;23.80;64.07;101000.38;5062088;28;48183;-77
2023/05/04 08:19:58;;;;;;;;;14.00;14.00;;;;;23.94;63.33;101008.88;5080508;28;45326;-78
2023/05/04 08:22:24;;;;;;;;;17.00;15.67;;;;;24.04;62.25;101000.03;5080370;28;45252;-78
2023/05/04 08:24:49;;;;;;;;;15.33;15.33;;;;;24.12;61.60;101002.25;5061556;28;46447;-77
2023/05/04 08:27:14;;;;;;;;;15.33;15.00;;;;;24.17;61.55;100998.78;5078733;28;54626;-77
2023/05/04 08:29:40;;;;;;;;;14.00;13.67;;;;;24.15;61.06;100998.25;5092013;27;45272;-77
2023/05/04 08:32:06;;;;;;;;;16.67;16.00;;;;;24.08;59.42;100979.41;5082586;27;45352;-76
2023/05/04 08:34:31;;;;;;;;;16.67;14.33;;;;;24.28;60.60;101002.41;5100569;27;45382;-76
2023/05/04 08:36:57;;;;;;;;;15.00;14.00;;;;;24.30;61.42;100989.41;5100509;27;45366;-77
2023/05/04 08:39:22;;;;;;;;;15.00;14.00;;;;;24.52;60.87;100988.44;5101751;27;45964;-76
2023/05/04 08:41:47;;;;;;;;;11.00;11.00;;;;;24.62;60.01;100984.94;5121459;27;45302;-78
2023/05/04 08:44:13;;;;;;;;;15.67;15.00;;;;;24.58;60.40;100988.19;5121053;27;45467;-78
2023/05/04 08:46:39;;;;;;;;;14.67;14.67;;;;;24.70;60.62;100992.59;5121094;27;45365;-78
2023/05/04 08:49:09;;;;;;;;;17.67;17.00;;;;;24.79;60.76;100995.63;5121284;27;45357;-77
2023/05/04 08:51:36;;;;;;;;;14.67;14.67;;;;;24.88;61.38;101006.84;5102531;27;45302;-78
2023/05/04 08:54:04;;;;;;;;;14.33;14.33;;;;;24.93;59.55;101006.88;5121046;27;45420;-78
2023/05/04 08:56:30;;;;;;;;;14.67;14.67;;;;;24.99;59.28;101013.16;5120943;27;45244;-77
2023/05/04 08:59:00;;;;;;;;;14.00;13.67;;;;;24.98;58.92;101004.16;5104223;27;45460;-77
2023/05/04 09:01:27;;;;;;;;;15.33;14.33;;;;;25.03;58.86;101000.66;5100619;27;45366;-77
2023/05/04 09:03:52;;;;;;;;;16.00;16.00;;;;;25.04;58.80;100986.81;5081666;27;47710;-77
2023/05/04 09:06:18;;;;;;;;;14.00;13.00;;;;;25.15;59.08;100978.69;5100112;27;45684;-78
2023/05/04 09:08:44;;;;;;;;;13.33;13.33;;;;;25.27;59.11;100979.25;5081823;27;45335;-77
2023/05/04 09:11:09;;;;;;;;;15.00;14.67;;;;;25.34;58.92;100977.09;5099383;27;45362;-77
2023/05/04 09:13:35;;;;;;;;;15.33;15.33;;;;;25.42;56.79;100978.47;5079681;27;45940;-77
2023/05/04 09:16:02;;;;;;;;;12.33;12.33;;;;;25.46;57.13;100984.19;5098788;27;46471;-77
2023/05/04 09:18:38;;;;;;;;;14.67;13.33;;;;;25.52;57.45;100980.38;5080917;27;45713;-78
2023/05/04 09:21:04;;;;;;;;;14.33;14.00;;;;;25.53;58.67;100975.78;5081500;27;45441;-77
2023/05/04 09:23:29;;;;;;;;;14.00;14.00;;;;;25.50;58.40;100968.94;5099947;27;45304;-78
2023/05/04 09:25:55;;;;;;;;;13.33;13.33;;;;;25.62;58.31;100970.63;5081279;27;47673;-77
2023/05/04 09:28:37;;;;;;;;;17.00;17.00;;;;;25.70;58.56;100967.38;5100179;27;45398;-78
2023/05/04 09:31:02;;;;;;;;;13.00;13.00;;;;;25.65;57.90;100951.84;5093410;27;45399;-78
2023/05/04 09:33:28;;;;;;;;;15.00;14.00;;;;;25.75;58.07;100955.66;5079156;28;45304;-77
2023/05/04 09:35:53;;;;;;;;;12.67;12.67;;;;;25.88;57.61;100973.38;5084815;27;46168;-76
2023/05/04 09:38:30;;;;;;;;;13.67;13.33;;;;;25.91;57.50;100970.09;5082704;28;45277;-76
2023/05/04 09:40:56;;;;;;;;;15.00;15.00;;;;;25.94;57.78;100958.66;5102791;27;45476;-75
2023/05/04 09:43:23;;;;;;;;;14.00;14.00;;;;;26.05;57.22;100975.81;5084499;27;46195;-78
2023/05/04 09:45:49;;;;;;;;;14.00;14.00;;;;;26.13;58.18;100967.09;5103243;27;46197;-77
2023/05/04 09:48:17;;;;;;;;;15.00;14.67;;;;;26.25;58.26;100965.97;5103364;27;45324;-76
2023/05/04 09:51:01;;;;;;;;;14.00;14.00;;;;;26.33;56.78;100963.53;5084962;27;45408;-77
2023/05/04 09:53:30;;;;;;;;;16.67;15.67;;;;;26.46;57.39;100964.06;5096804;27;45209;-77
2023/05/04 09:56:12;;;;;;;;;16.33;16.33;;;;;26.59;54.37;100947.13;5102655;27;45577;-77
2023/05/04 09:58:39;;;;;;;;;14.33;13.33;;;;;26.82;55.70;100955.72;5083117;27;45815;-77
2023/05/04 10:01:05;;;;;;;;;15.00;15.00;;;;;27.02;56.10;100943.13;5103441;27;45168;-78
2023/05/04 10:03:31;;;;;;;;;13.67;13.67;;;;;27.35;55.51;100965.28;5102984;27;45341;-79
2023/05/04 10:06:03;;;;;;;;;16.00;16.00;;;;;27.53;54.56;100952.06;5102978;27;46295;-79
2023/05/04 10:08:28;;;;;;;;;13.67;13.67;;;;;27.65;53.60;100950.94;5103036;27;45389;-79
2023/05/04 10:10:54;;;;;;;;;15.33;15.00;;;;;27.80;53.88;100958.97;5103239;27;45294;-79
2023/05/04 10:13:19;;;;;;;;;13.67;13.67;;;;;27.89;52.42;100961.09;5102694;27;45436;-79
2023/05/04 10:16:17;;;;;;;;;11.33;11.33;;;;;27.96;51.89;100956.91;5102823;27;45618;-78
2023/05/04 10:19:06;;;;;;;;;14.00;14.00;;;;;28.06;53.10;100955.19;5102880;27;45340;-79
2023/05/04 10:21:54;;;;;;;;;14.67;14.67;;;;;28.24;53.18;100950.91;5102905;27;45234;-78
2023/05/04 10:24:53;;;;;;;;;13.33;12.00;;;;;28.41;52.37;100947.78;5084220;27;46081;-80
2023/05/04 10:27:49;;;;;;;;;13.33;13.33;;;;;28.61;49.04;100943.97;5102370;27;45260;-79
2023/05/04 10:30:17;;;;;;;;;13.33;13.33;;;;;28.65;50.25;100941.47;5100617;27;45377;-80
2023/05/04 10:32:43;;;;;;;;;12.67;12.67;;;;;28.72;50.44;100935.63;5084049;27;45295;-81
2023/05/04 10:35:09;;;;;;;;;13.00;12.67;;;;;28.91;48.40;100941.13;5102492;27;45400;-80
2023/05/04 10:37:38;;;;;;;;;13.00;13.00;;;;;29.00;48.45;100918.63;5102044;27;46449;-79
2023/05/04 10:40:04;;;;;;;;;14.33;13.00;;;;;29.27;48.38;100949.97;5102398;27;45353;-79
2023/05/04 10:42:40;;;;;;;;;11.00;11.00;;;;;29.36;47.15;100945.44;5084003;27;45382;-79
2023/05/04 10:45:08;;;;;;;;;10.00;10.00;;;;;29.42;46.43;100932.50;5099999;27;45344;-76
2023/05/04 10:47:38;;;;;;;;;12.00;11.33;;;;;29.45;44.57;100935.44;5101168;27;45996;-78
2023/05/04 10:50:06;;;;;;;;;11.33;11.00;;;;;29.49;43.84;100941.13;5102407;27;45406;-78
2023/05/04 10:52:47;;;;;;;;;11.00;11.00;;;;;29.58;44.99;100954.97;5083782;27;45305;-79
2023/05/04 10:55:13;;;;;;;;;11.00;11.00;;;;;29.53;44.87;100947.63;5083636;27;47050;-77
2023/05/04 10:57:56;;;;;;;;;13.00;13.00;;;;;29.52;42.38;100942.44;5101872;27;45341;-77
2023/05/04 11:00:23;;;;;;;;;11.67;11.67;;;;;29.42;44.32;100921.53;5072146;27;45942;-76
2023/05/04 11:02:48;;;;;;;;;11.67;11.33;;;;;29.41;44.23;100917.16;5083133;27;45366;-75
2023/05/04 11:05:18;;;;;;;;;8.00;7.67;;;;;29.46;43.76;100925.31;5102025;27;45501;-75
2023/05/04 11:07:45;;;;;;;;;11.00;11.00;;;;;29.64;44.33;100925.59;5083446;27;48161;-75